Time;durP1;ratioP1;P1;durP2;ratioP2;P2;SDS_P1;SDS_P2;PMS_P1;PMS_P2;Temp;Humidity;BMP_temperature;BMP_pressure;BME280_temperature;BME280_humidity;BME280_pressure;Samples;Min_cycle;Max_cycle;Signal;HPM_P1;HPM_P2
2022/06/22 00:00:19;;;;;;;12.88;10.00;;;12.80;99.90;;;;;;4983243;28;20046;-72
2022/06/22 00:02:48;;;;;;;12.80;10.23;;;12.80;99.90;;;;;;4972824;28;20057;-74
2022/06/22 00:05:21;;;;;;;11.68;8.77;;;12.80;99.90;;;;;;4928791;28;20113;-73
2022/06/22 00:07:57;;;;;;;11.23;8.68;;;12.80;99.90;;;;;;4944269;28;20678;-71
2022/06/22 00:10:31;;;;;;;8.32;7.53;;;12.60;99.90;;;;;;4946977;28;20093;-71
2022/06/22 00:12:59;;;;;;;10.68;8.13;;;12.60;99.90;;;;;;4962403;28;20046;-71
2022/06/22 00:15:35;;;;;;;10.35;8.15;;;12.50;99.90;;;;;;4960940;28;20141;-72
2022/06/22 00:18:18;;;;;;;10.13;8.90;;;12.40;99.90;;;;;;4966007;28;21588;-71
2022/06/22 00:20:49;;;;;;;11.65;9.82;;;12.40;99.90;;;;;;4970823;28;20110;-71
2022/06/22 00:23:15;;;;;;;10.80;9.70;;;12.40;99.90;;;;;;4970898;28;21022;-72
2022/06/22 00:25:41;;;;;;;9.45;8.55;;;12.40;99.90;;;;;;4971362;28;20133;-72
2022/06/22 00:28:33;;;;;;;13.77;11.15;;;12.30;99.90;;;;;;4971359;28;20061;-71
2022/06/22 00:31:21;;;;;;;8.30;6.82;;;12.30;99.90;;;;;;4971465;28;20058;-71
2022/06/22 00:34:04;;;;;;;10.07;8.50;;;12.10;99.90;;;;;;4971603;28;20054;-71
2022/06/22 00:36:45;;;;;;;11.32;10.07;;;12.10;99.90;;;;;;4970928;28;20054;-71
2022/06/22 00:39:21;;;;;;;15.38;12.52;;;12.00;99.90;;;;;;4971410;28;20085;-71
2022/06/22 00:42:15;;;;;;;16.08;13.80;;;12.00;99.90;;;;;;4985130;28;20429;-71
2022/06/22 00:45:05;;;;;;;16.10;14.45;;;11.90;99.90;;;;;;4971704;28;20524;-71
2022/06/22 00:47:38;;;;;;;15.43;13.93;;;11.80;99.90;;;;;;4970260;28;20123;-71
2022/06/22 00:50:09;;;;;;;11.30;10.10;;;11.80;99.90;;;;;;4951703;28;20505;-71
2022/06/22 00:52:45;;;;;;;11.77;10.10;;;11.70;99.90;;;;;;4950462;28;20540;-71
2022/06/22 00:55:26;;;;;;;12.20;11.00;;;11.70;99.90;;;;;;4952819;28;20077;-71
2022/06/22 00:58:02;;;;;;;9.95;8.00;;;11.80;99.90;;;;;;4969350;28;20082;-72
2022/06/22 01:00:36;;;;;;;8.32;7.20;;;11.80;99.90;;;;;;4988156;28;20741;-72
2022/06/22 01:03:25;;;;;;;8.43;7.15;;;11.80;99.90;;;;;;4996720;28;20053;-72
2022/06/22 01:06:07;;;;;;;8.13;6.80;;;11.70;99.90;;;;;;4986540;28;20103;-72
2022/06/22 01:08:33;;;;;;;8.90;8.02;;;11.70;99.90;;;;;;4988737;28;20037;-71
2022/06/22 01:12:16;;;;;;;17.77;15.00;;;11.60;99.90;;;;;;4984152;28;20172;-72
2022/06/22 01:13:55;;;;;;;10.85;9.75;;;11.50;99.90;;;;;;4984479;28;20046;-72
2022/06/22 01:16:28;;;;;;;10.90;9.90;;;11.40;99.90;;;;;;4986029;28;20050;-71
2022/06/22 01:19:55;;;;;;;10.85;9.23;;;11.40;99.90;;;;;;4979949;28;20049;-71
2022/06/22 01:22:43;;;;;;;11.27;9.80;;;11.40;99.90;;;;;;4927365;28;20043;-72
2022/06/22 01:25:48;;;;;;;11.88;9.80;;;11.40;99.90;;;;;;4929566;28;20047;-71
2022/06/22 01:28:15;;;;;;;16.08;13.65;;;11.40;99.90;;;;;;4979556;28;20034;-71
2022/06/22 01:30:48;;;;;;;20.35;16.73;;;11.40;99.90;;;;;;4985784;28;20042;-71
2022/06/22 01:33:26;;;;;;;13.63;12.23;;;11.30;99.90;;;;;;4970352;28;20038;-72
2022/06/22 01:36:05;;;;;;;16.30;13.77;;;11.30;99.90;;;;;;4987778;28;20173;-71
2022/06/22 01:38:35;;;;;;;16.42;13.40;;;11.20;99.90;;;;;;4985763;28;21325;-71
2022/06/22 01:41:26;;;;;;;11.13;10.20;;;11.10;99.90;;;;;;4986662;28;20050;-71
2022/06/22 01:44:06;;;;;;;;;;;11.00;99.90;;;;;;4986983;28;20078;-71
2022/06/22 01:46:47;;;;;;;10.48;9.43;;;10.90;99.90;;;;;;4983668;28;19929;-71
2022/06/22 01:49:33;;;;;;;11.05;9.95;;;10.90;99.90;;;;;;4979991;28;20052;-72
2022/06/22 01:52:08;;;;;;;12.25;10.52;;;10.90;99.90;;;;;;4967534;28;20051;-72
2022/06/22 01:54:43;;;;;;;13.05;11.65;;;11.00;99.90;;;;;;4984042;28;20049;-72
2022/06/22 01:57:16;;;;;;;11.88;10.68;;;11.00;99.90;;;;;;4985338;28;20097;-72
2022/06/22 01:59:48;;;;;;;11.18;10.02;;;11.00;99.90;;;;;;4969768;28;20042;-72
2022/06/22 02:02:19;;;;;;;9.43;8.52;;;10.90;99.90;;;;;;4986262;28;20042;-72
2022/06/22 02:04:54;;;;;;;8.55;6.65;;;10.80;99.90;;;;;;4985411;28;20054;-72
2022/06/22 02:07:44;;;;;;;15.70;12.48;;;10.80;99.90;;;;;;4979531;28;20052;-72
2022/06/22 02:10:34;;;;;;;10.05;8.70;;;10.70;99.90;;;;;;4981171;28;20487;-71
2022/06/22 02:13:22;;;;;;;9.00;8.10;;;10.60;99.90;;;;;;4979840;28;20050;-72
2022/06/22 02:16:23;;;;;;;9.98;8.90;;;10.60;99.90;;;;;;4991335;28;20962;-72
2022/06/22 02:19:09;;;;;;;9.15;8.25;;;10.60;99.90;;;;;;4988978;28;20057;-72
2022/06/22 02:21:44;;;;;;;9.73;8.80;;;10.60;99.90;;;;;;4991907;28;20058;-72
2022/06/22 02:24:18;;;;;;;10.82;9.80;;;10.60;99.90;;;;;;5000608;28;20050;-72
2022/06/22 02:26:57;;;;;;;9.57;8.68;;;10.60;99.90;;;;;;4993555;28;20050;-71
2022/06/22 02:29:48;;;;;;;11.10;9.98;;;10.60;99.90;;;;;;4982137;28;20050;-72
2022/06/22 02:32:37;;;;;;;9.43;8.40;;;10.50;99.90;;;;;;4974121;28;20848;-72
2022/06/22 02:35:05;;;;;;;10.00;8.88;;;10.40;99.90;;;;;;4994123;28;20120;-72
2022/06/22 02:37:38;;;;;;;12.70;11.40;;;10.40;99.90;;;;;;4988028;28;20058;-71
2022/06/22 02:40:08;;;;;;;12.32;8.70;;;10.40;99.90;;;;;;4986652;28;20057;-72
2022/06/22 02:45:20;;;;;;;9.85;8.95;;;10.30;99.90;;;;;;4987224;28;20145;-72
2022/06/22 02:47:51;;;;;;;10.45;9.05;;;10.30;99.90;;;;;;4956215;28;20069;-71
2022/06/22 02:50:36;;;;;;;10.25;8.27;;;10.30;99.90;;;;;;4986826;28;20046;-70
2022/06/22 02:53:35;;;;;;;8.68;7.78;;;10.30;99.90;;;;;;4998001;28;20077;-70
2022/06/22 02:56:04;;;;;;;7.63;6.93;;;10.30;99.90;;;;;;4981166;28;20056;-71
2022/06/22 02:58:36;;;;;;;6.00;5.43;;;10.20;99.90;;;;;;4982583;28;20049;-70
2022/06/22 03:01:12;;;;;;;9.55;8.60;;;10.20;99.90;;;;;;4985342;28;20053;-70
2022/06/22 03:03:59;;;;;;;9.10;8.30;;;10.20;99.90;;;;;;4981241;28;20046;-71
2022/06/22 03:06:30;;;;;;;8.55;7.72;;;10.20;99.90;;;;;;4989075;28;20661;-70
2022/06/22 03:09:00;;;;;;;8.70;7.80;;;10.10;99.90;;;;;;5000153;28;20379;-70
2022/06/22 03:11:26;;;;;;;9.27;8.38;;;10.10;99.90;;;;;;4988214;28;20047;-70
2022/06/22 03:13:57;;;;;;;10.02;9.02;;;10.10;99.90;;;;;;4989437;28;20042;-71
2022/06/22 03:16:29;;;;;;;9.70;8.80;;;10.10;99.90;;;;;;4990189;28;20053;-70
2022/06/22 03:19:00;;;;;;;10.55;9.45;;;10.10;99.90;;;;;;4989286;28;20053;-70
2022/06/22 03:21:27;;;;;;;11.10;10.10;;;10.10;99.90;;;;;;4991537;28;20050;-70
2022/06/22 03:24:12;;;;;;;10.55;9.55;;;10.10;99.90;;;;;;4982298;28;20046;-70
2022/06/22 03:26:42;;;;;;;14.20;12.70;;;10.10;99.90;;;;;;4982320;28;20785;-70
2022/06/22 03:29:29;;;;;;;;;;;10.00;99.90;;;;;;4990310;28;20803;-71
2022/06/22 03:32:00;;;;;;;12.82;11.52;;;10.00;99.90;;;;;;4988851;28;20419;-70
2022/06/22 03:34:30;;;;;;;11.55;10.45;;;10.00;99.90;;;;;;4998560;28;20103;-71
2022/06/22 03:37:06;;;;;;;12.63;11.38;;;10.00;99.90;;;;;;4985162;28;20315;-71
2022/06/22 03:39:38;;;;;;;12.90;11.60;;;10.00;99.90;;;;;;4971448;28;20498;-71
2022/06/22 03:42:13;;;;;;;14.15;12.75;;;10.00;99.90;;;;;;4986442;28;20642;-71
2022/06/22 03:44:46;;;;;;;13.95;12.55;;;10.00;99.90;;;;;;4991502;28;20042;-71
2022/06/22 03:47:21;;;;;;;13.60;12.20;;;9.90;99.90;;;;;;4989410;28;20046;-71
2022/06/22 03:49:56;;;;;;;13.70;12.30;;;9.90;99.90;;;;;;4989243;28;20046;-71
2022/06/22 03:52:43;;;;;;;12.73;11.43;;;9.80;99.90;;;;;;4985889;28;20061;-71
2022/06/22 03:55:24;;;;;;;12.52;11.23;;;9.80;99.90;;;;;;4980407;28;20084;-71
2022/06/22 03:57:54;;;;;;;15.18;13.50;;;9.90;99.90;;;;;;4988145;28;20046;-71
2022/06/22 04:00:21;;;;;;;17.90;15.98;;;10.00;99.90;;;;;;4987190;28;20064;-71
2022/06/22 04:02:48;;;;;;;21.48;19.15;;;10.10;99.90;;;;;;4988756;28;20077;-71
2022/06/22 04:05:21;;;;;;;20.55;18.35;;;10.20;99.90;;;;;;4970661;28;20038;-71
2022/06/22 04:07:47;;;;;;;21.30;18.38;;;10.20;99.90;;;;;;4980474;28;20040;-71
2022/06/22 04:10:31;;;;;;;19.75;17.70;;;10.30;99.90;;;;;;4967085;28;20048;-71
2022/06/22 04:12:58;;;;;;;21.20;19.13;;;10.60;99.90;;;;;;4989803;28;20042;-71
2022/06/22 04:15:34;;;;;;;23.08;20.67;;;10.50;99.90;;;;;;4986684;28;20064;-71
2022/06/22 04:18:07;;;;;;;21.55;19.23;;;10.60;99.90;;;;;;4987102;28;20504;-71
2022/06/22 04:20:52;;;;;;;24.50;21.67;;;10.60;99.90;;;;;;4986320;28;20489;-71
2022/06/22 04:23:59;;;;;;;23.45;21.10;;;10.70;99.90;;;;;;4985422;28;20796;-71
2022/06/22 04:26:32;;;;;;;22.90;20.42;;;10.80;99.90;;;;;;4961798;28;20054;-71
2022/06/22 04:29:04;;;;;;;22.70;20.40;;;10.80;99.90;;;;;;4969152;28;20050;-71
2022/06/22 04:31:35;;;;;;;23.17;20.88;;;10.90;99.90;;;;;;4976893;28;20065;-72
2022/06/22 04:34:07;;;;;;;22.48;20.17;;;11.00;99.90;;;;;;4987610;28;20038;-72
2022/06/22 04:36:56;;;;;;;24.10;21.45;;;11.00;99.90;;;;;;4987362;28;20113;-72
2022/06/22 04:39:32;;;;;;;22.60;20.20;;;11.10;99.90;;;;;;4986416;28;20044;-72
2022/06/22 04:42:00;;;;;;;22.42;20.13;;;11.10;99.90;;;;;;5014435;28;20146;-72
2022/06/22 04:44:39;;;;;;;23.23;20.58;;;11.20;99.90;;;;;;4985394;28;20200;-71
2022/06/22 04:47:29;;;;;;;21.77;19.58;;;11.20;99.90;;;;;;4980450;28;20050;-72
2022/06/22 04:49:59;;;;;;;22.00;19.70;;;11.30;99.90;;;;;;4997052;28;20046;-71
2022/06/22 04:52:32;;;;;;;23.38;19.80;;;11.30;99.90;;;;;;4986480;28;20446;-71
2022/06/22 04:55:01;;;;;;;21.33;19.15;;;11.40;99.90;;;;;;4986669;28;20456;-72
2022/06/22 04:57:29;;;;;;;23.08;20.58;;;11.50;99.90;;;;;;4985564;28;20061;-72
2022/06/22 04:59:55;;;;;;;22.27;19.95;;;11.50;99.90;;;;;;4980246;28;20037;-72
2022/06/22 05:02:26;;;;;;;23.77;21.40;;;11.60;99.90;;;;;;4984256;28;20128;-72
2022/06/22 05:05:03;;;;;;;24.83;21.25;;;11.70;99.90;;;;;;4978306;28;20049;-72
2022/06/22 05:07:48;;;;;;;23.08;19.95;;;11.80;99.90;;;;;;4989334;28;20089;-72
2022/06/22 05:10:46;;;;;;;21.15;18.92;;;11.90;99.90;;;;;;4986575;28;20053;-72
2022/06/22 05:13:19;;;;;;;22.45;19.98;;;11.90;99.90;;;;;;4970698;28;20297;-71
2022/06/22 05:15:52;;;;;;;24.00;21.65;;;12.00;99.90;;;;;;4988339;28;20469;-71
2022/06/22 05:18:23;;;;;;;23.77;20.58;;;12.00;99.90;;;;;;4984803;28;20603;-71
2022/06/22 05:21:12;;;;;;;26.25;22.83;;;12.10;99.90;;;;;;4989317;28;20461;-72
2022/06/22 05:23:40;;;;;;;21.92;19.67;;;12.20;99.90;;;;;;4990163;28;20103;-71
2022/06/22 05:26:08;;;;;;;21.40;19.13;;;12.20;99.90;;;;;;4972813;28;20053;-71
2022/06/22 05:28:56;;;;;;;20.45;18.00;;;12.30;99.90;;;;;;4986570;28;20053;-72
2022/06/22 05:31:31;;;;;;;19.90;17.80;;;12.30;99.90;;;;;;4969264;28;20042;-71
2022/06/22 05:34:04;;;;;;;20.58;18.20;;;12.50;99.90;;;;;;4985650;28;20051;-72
2022/06/22 05:36:37;;;;;;;21.83;19.58;;;12.60;99.90;;;;;;4996230;28;20170;-72
2022/06/22 05:39:04;;;;;;;19.40;17.33;;;12.70;99.90;;;;;;4986134;28;20678;-72
2022/06/22 05:41:36;;;;;;;20.58;18.52;;;12.80;99.90;;;;;;5012142;28;20088;-72
2022/06/22 05:44:11;;;;;;;19.85;17.85;;;12.90;99.90;;;;;;4987373;28;20509;-72
2022/06/22 05:46:40;;;;;;;20.70;18.60;;;13.00;99.90;;;;;;4993514;28;20324;-72
2022/06/22 05:49:10;;;;;;;20.23;18.17;;;13.10;99.90;;;;;;4994130;28;20046;-72
2022/06/22 05:51:49;;;;;;;20.83;18.60;;;13.30;99.90;;;;;;4969469;28;20533;-72
2022/06/22 05:54:26;;;;;;;21.42;19.25;;;13.30;99.90;;;;;;4979366;28;20471;-72
2022/06/22 05:57:21;;;;;;;20.73;18.55;;;13.50;99.90;;;;;;4992487;28;20056;-72
2022/06/22 05:59:49;;;;;;;21.80;19.63;;;13.60;99.90;;;;;;4973928;28;20685;-72
2022/06/22 06:02:38;;;;;;;21.20;19.08;;;13.70;99.90;;;;;;4995454;28;20042;-72
2022/06/22 06:05:17;;;;;;;21.95;19.75;;;13.80;99.90;;;;;;4992519;28;20583;-72
2022/06/22 06:07:52;;;;;;;22.70;20.40;;;13.90;99.90;;;;;;4989747;28;20041;-71
2022/06/22 06:10:31;;;;;;;19.80;17.95;;;14.00;99.90;;;;;;4986445;28;20480;-72
2022/06/22 06:13:32;;;;;;;19.77;17.73;;;14.10;99.90;;;;;;4984893;28;20046;-72
2022/06/22 06:16:01;;;;;;;20.23;17.38;;;14.20;99.90;;;;;;4978002;28;20057;-71
2022/06/22 06:18:31;;;;;;;19.58;17.48;;;14.30;99.90;;;;;;4996779;28;20120;-72
2022/06/22 06:21:04;;;;;;;19.02;16.23;;;14.30;99.90;;;;;;4991446;28;20078;-72
2022/06/22 06:23:45;;;;;;;18.23;15.02;;;14.50;99.90;;;;;;4987287;28;20535;-72
2022/06/22 06:29:46;;;;;;;13.30;11.98;;;14.60;99.90;;;;;;4991361;28;20130;-72
2022/06/22 06:32:49;;;;;;;11.90;10.70;;;14.70;99.90;;;;;;4989774;28;20050;-72
2022/06/22 06:35:30;;;;;;;11.02;9.13;;;14.80;99.90;;;;;;4979676;28;20039;-72
2022/06/22 06:38:02;;;;;;;9.10;8.02;;;14.90;99.90;;;;;;4988642;28;20050;-72
2022/06/22 06:40:47;;;;;;;8.68;7.55;;;15.00;99.90;;;;;;4995453;28;20459;-72
2022/06/22 06:43:23;;;;;;;11.38;8.63;;;15.20;99.90;;;;;;4980265;28;20062;-73
2022/06/22 06:45:52;;;;;;;11.07;9.38;;;15.20;99.90;;;;;;4979093;28;20117;-73
2022/06/22 06:48:23;;;;;;;10.25;8.95;;;15.40;99.90;;;;;;4986960;28;20454;-73
2022/06/22 06:50:52;;;;;;;10.73;8.48;;;15.50;99.90;;;;;;4988587;28;20413;-72
2022/06/22 06:53:36;;;;;;;8.68;7.75;;;15.50;99.90;;;;;;4987742;28;20116;-70
2022/06/22 06:56:07;;;;;;;6.95;5.68;;;15.60;99.90;;;;;;4982377;28;20046;-71
2022/06/22 06:58:42;;;;;;;6.15;3.90;;;15.70;99.90;;;;;;4971210;28;20113;-70
2022/06/22 07:01:15;;;;;;;5.57;3.50;;;15.80;99.90;;;;;;4988058;28;20262;-71
2022/06/22 07:03:41;;;;;;;6.28;3.80;;;16.00;99.90;;;;;;4982256;28;20567;-70
2022/06/22 07:06:08;;;;;;;5.65;3.72;;;16.10;99.90;;;;;;4981649;28;20046;-71
2022/06/22 07:08:42;;;;;;;6.85;4.10;;;16.30;99.90;;;;;;4982711;28;20097;-70
2022/06/22 07:11:31;;;;;;;8.40;4.43;;;16.40;99.90;;;;;;4986412;28;20141;-71
2022/06/22 07:14:21;;;;;;;5.95;4.78;;;16.50;99.90;;;;;;4987789;28;20058;-71
2022/06/22 07:16:49;;;;;;;10.10;5.00;;;16.70;99.90;;;;;;4970281;28;20057;-71
2022/06/22 07:19:18;;;;;;;6.18;3.33;;;16.80;99.90;;;;;;4991360;28;20035;-71
2022/06/22 07:21:53;;;;;;;7.25;3.90;;;16.90;99.90;;;;;;4997991;28;20038;-70
2022/06/22 07:24:42;;;;;;;7.45;4.20;;;17.10;99.90;;;;;;4998875;28;20042;-71
2022/06/22 07:27:36;;;;;;;8.27;3.60;;;17.30;99.90;;;;;;4971204;28;20668;-71
2022/06/22 07:30:27;;;;;;;9.32;4.13;;;17.40;99.90;;;;;;4988718;28;20078;-71
2022/06/22 07:33:01;;;;;;;7.70;4.10;;;17.50;99.90;;;;;;4983830;28;20053;-71
2022/06/22 07:35:46;;;;;;;6.53;3.80;;;17.60;99.90;;;;;;4990019;28;20050;-71
2022/06/22 07:38:29;;;;;;;8.85;3.70;;;17.70;99.90;;;;;;4987768;28;20053;-71
2022/06/22 07:43:53;;;;;;;10.52;4.35;;;18.10;99.90;;;;;;4988220;28;20454;-71
2022/06/22 07:46:36;;;;;;;5.93;3.55;;;18.30;99.90;;;;;;4986247;28;20145;-71
2022/06/22 07:49:20;;;;;;;8.88;4.05;;;18.40;99.90;;;;;;4989686;28;20496;-71
2022/06/22 07:51:52;;;;;;;7.15;3.65;;;18.50;99.90;;;;;;4999616;28;20133;-70
2022/06/22 07:54:37;;;;;;;6.45;3.72;;;18.60;99.90;;;;;;4987993;28;20057;-71
2022/06/22 07:57:36;;;;;;;5.40;3.25;;;18.70;99.90;;;;;;4989131;28;20531;-72
2022/06/22 08:00:10;;;;;;;8.00;3.50;;;18.60;99.90;;;;;;4988392;28;20042;-71
2022/06/22 08:02:53;;;;;;;7.38;3.38;;;18.70;99.90;;;;;;4972477;28;20061;-71
2022/06/22 08:05:24;;;;;;;9.18;3.15;;;18.90;99.90;;;;;;4988141;28;20108;-72
2022/06/22 08:07:57;;;;;;;7.32;3.40;;;19.10;99.90;;;;;;4988994;28;20050;-72
2022/06/22 08:10:36;;;;;;;7.25;3.42;;;19.20;99.90;;;;;;4988259;28;20065;-71
2022/06/22 08:13:11;;;;;;;9.90;3.58;;;19.30;99.90;;;;;;4986875;28;20096;-72
2022/06/22 08:15:47;;;;;;;6.15;3.55;;;19.40;99.90;;;;;;4986678;28;20666;-72
2022/06/22 08:18:14;;;;;;;6.38;2.75;;;19.50;99.90;;;;;;4986821;28;20208;-71
2022/06/22 08:20:42;;;;;;;5.55;2.63;;;19.60;99.90;;;;;;4994768;28;20046;-72
2022/06/22 08:23:15;;;;;;;4.80;2.63;;;19.70;99.90;;;;;;4998750;28;20553;-71
2022/06/22 08:25:44;;;;;;;3.72;2.15;;;19.70;97.30;;;;;;4979477;28;20050;-72
2022/06/22 08:28:16;;;;;;;3.92;1.90;;;19.70;95.90;;;;;;4986194;28;20081;-71
2022/06/22 08:30:43;;;;;;;6.15;2.83;;;19.70;91.80;;;;;;4990285;28;20144;-71
2022/06/22 08:33:27;;;;;;;8.73;2.85;;;19.80;94.80;;;;;;4969025;28;20050;-71
2022/06/22 08:35:57;;;;;;;6.03;2.97;;;19.90;96.90;;;;;;4990396;28;20046;-71
2022/06/22 08:38:39;;;;;;;6.25;2.28;;;20.00;96.80;;;;;;4973384;28;20080;-72
2022/06/22 08:41:14;;;;;;;6.43;2.58;;;20.00;91.60;;;;;;4980152;28;20046;-71
2022/06/22 08:43:54;;;;;;;3.75;1.95;;;20.00;91.70;;;;;;4973023;28;20053;-72
2022/06/22 08:46:56;;;;;;;4.63;1.92;;;20.10;83.60;;;;;;4986053;28;20054;-72
2022/06/22 08:49:41;;;;;;;6.00;2.78;;;20.00;82.10;;;;;;4970370;28;20089;-71
2022/06/22 08:52:19;;;;;;;5.03;1.90;;;20.10;88.10;;;;;;4968757;28;20073;-71
2022/06/22 08:55:09;;;;;;;4.93;2.40;;;20.20;88.30;;;;;;4986295;28;20305;-71
2022/06/22 08:57:55;;;;;;;5.32;2.00;;;20.30;86.60;;;;;;4985279;28;20057;-72
2022/06/22 09:00:40;;;;;;;4.78;2.22;;;20.30;90.30;;;;;;4987245;28;20152;-72
2022/06/22 09:03:09;;;;;;;4.38;2.15;;;20.50;89.80;;;;;;4984604;28;20412;-72
2022/06/22 09:05:52;;;;;;;5.25;2.45;;;20.70;91.60;;;;;;4972193;28;20408;-71
2022/06/22 09:08:52;;;;;;;5.75;2.83;;;20.90;76.10;;;;;;4991104;28;20041;-71
2022/06/22 09:11:40;;;;;;;9.90;3.00;;;20.90;78.30;;;;;;4985710;28;20470;-71
2022/06/22 09:14:15;;;;;;;6.03;2.83;;;20.90;80.50;;;;;;4988671;28;20068;-71
2022/06/22 09:16:59;;;;;;;4.93;2.80;;;20.90;83.30;;;;;;4988268;28;20698;-72
2022/06/22 09:19:34;;;;;;;4.82;2.35;;;20.90;83.60;;;;;;4987534;28;20048;-71
2022/06/22 09:22:16;;;;;;;6.13;2.45;;;20.90;83.40;;;;;;4988215;28;20093;-71
2022/06/22 09:25:02;;;;;;;6.20;3.00;;;21.00;81.40;;;;;;4979923;28;20496;-72
2022/06/22 09:28:00;;;;;;;6.05;3.40;;;20.90;79.20;;;;;;4970874;28;20066;-71
2022/06/22 09:30:46;;;;;;;6.78;3.35;;;21.10;87.20;;;;;;4980281;28;20055;-72
2022/06/22 09:33:30;;;;;;;7.25;3.70;;;21.20;85.30;;;;;;4987223;28;20078;-72
2022/06/22 09:36:06;;;;;;;7.68;3.47;;;21.30;81.20;;;;;;4986860;28;20238;-72
2022/06/22 09:38:40;;;;;;;6.35;2.83;;;21.20;81.20;;;;;;4987129;28;20054;-71
2022/06/22 09:41:37;;;;;;;6.50;3.67;;;21.10;80.70;;;;;;4977610;28;20181;-72
2022/06/22 09:44:15;;;;;;;6.97;3.95;;;21.20;84.40;;;;;;4986472;28;20448;-72
2022/06/22 09:47:12;;;;;;;5.78;3.13;;;21.30;85.30;;;;;;4975862;28;20034;-72
2022/06/22 09:49:59;;;;;;;8.27;3.78;;;21.50;89.60;;;;;;4979180;28;20053;-73
2022/06/22 09:52:44;;;;;;;7.25;3.70;;;21.80;84.70;;;;;;4984528;28;20050;-71
2022/06/22 09:58:51;;;;;;;6.93;2.72;;;21.70;72.90;;;;;;4988465;28;20054;-72
2022/06/22 10:01:41;;;;;;;6.70;2.28;;;21.80;70.70;;;;;;4980238;28;20106;-72
2022/06/22 10:04:12;;;;;;;6.00;3.40;;;21.90;68.80;;;;;;4986929;28;20088;-72
2022/06/22 10:06:50;;;;;;;5.45;3.20;;;22.00;73.30;;;;;;4973847;28;20039;-72
2022/06/22 10:09:34;;;;;;;4.78;2.97;;;22.10;78.50;;;;;;4987868;28;20130;-72
2022/06/22 10:12:12;;;;;;;4.43;2.38;;;22.10;80.40;;;;;;4979411;28;20520;-72
2022/06/22 10:14:43;;;;;;;5.93;3.35;;;22.30;69.90;;;;;;4971722;28;20221;-73
2022/06/22 10:17:30;;;;;;;6.53;3.47;;;22.30;74.40;;;;;;4970193;28;20066;-72
2022/06/22 10:20:21;;;;;;;6.82;3.38;;;22.30;75.20;;;;;;4986875;28;20061;-71
2022/06/22 10:22:54;;;;;;;6.53;3.28;;;22.40;72.30;;;;;;4978758;28;20417;-71
2022/06/22 10:25:45;;;;;;;5.80;3.28;;;22.40;75.60;;;;;;4981465;28;20046;-72
2022/06/22 10:28:39;;;;;;;5.53;2.53;;;22.40;72.80;;;;;;4988207;28;20046;-71
2022/06/22 10:31:26;;;;;;;6.93;2.55;;;22.50;71.50;;;;;;4986255;28;20062;-71
2022/06/22 10:34:25;;;;;;;5.45;2.53;;;22.60;81.00;;;;;;4979101;28;20060;-71
2022/06/22 10:37:09;;;;;;;6.10;2.63;;;22.90;74.80;;;;;;4991419;28;20054;-71
2022/06/22 10:40:03;;;;;;;5.28;2.75;;;23.10;71.30;;;;;;4996323;28;20045;-71
2022/06/22 10:46:01;;;;;;;7.03;2.72;;;23.30;64.70;;;;;;4996681;28;20096;-72
2022/06/22 10:48:26;;;;;;;5.75;3.40;;;23.20;65.80;;;;;;4997914;28;20680;-72
2022/06/22 10:51:28;;;;;;;5.50;2.60;;;23.10;65.60;;;;;;4981604;28;20050;-71
2022/06/22 10:54:03;;;;;;;6.40;2.85;;;23.00;67.60;;;;;;4970872;28;20038;-71
2022/06/22 10:57:18;;;;;;;7.75;2.88;;;23.10;65.70;;;;;;4984290;28;20049;-72
2022/06/22 11:00:03;;;;;;;5.40;2.72;;;23.30;66.00;;;;;;5000112;28;20038;-72
2022/06/22 11:02:51;;;;;;;5.03;2.58;;;23.30;61.60;;;;;;4989613;28;20714;-72
2022/06/22 11:05:31;;;;;;;5.07;2.53;;;23.10;59.10;;;;;;4972497;28;20064;-72
2022/06/22 11:08:03;;;;;;;4.82;2.22;;;23.10;62.20;;;;;;4989280;28;20505;-72
2022/06/22 11:11:14;;;;;;;6.70;2.20;;;23.20;61.00;;;;;;4990388;28;20046;-72
2022/06/22 11:13:51;;;;;;;5.57;2.00;;;23.50;59.60;;;;;;4980601;28;20057;-72
2022/06/22 11:16:19;;;;;;;5.03;1.50;;;23.50;60.90;;;;;;4981330;28;20099;-72
2022/06/22 11:19:15;;;;;;;4.97;2.08;;;23.50;57.90;;;;;;4985717;28;20069;-71
2022/06/22 11:22:06;;;;;;;5.90;1.75;;;23.50;53.50;;;;;;4973527;28;20092;-72
2022/06/22 11:24:31;;;;;;;6.03;1.77;;;23.40;54.50;;;;;;4973082;28;20852;-72
2022/06/22 11:30:48;;;;;;;6.25;2.47;;;23.60;55.00;;;;;;4987376;28;20452;-72
2022/06/22 11:33:27;;;;;;;4.18;1.90;;;23.80;56.10;;;;;;4989274;28;20057;-72
2022/06/22 11:36:26;;;;;;;5.53;2.20;;;23.90;57.20;;;;;;4974479;28;20050;-72
2022/06/22 11:39:06;;;;;;;4.07;2.03;;;23.80;56.00;;;;;;4952327;28;20066;-72
2022/06/22 11:41:34;;;;;;;5.05;2.58;;;23.80;58.20;;;;;;4987972;28;20051;-72
2022/06/22 11:44:00;;;;;;;5.28;2.33;;;24.00;57.70;;;;;;4987697;28;20050;-72
2022/06/22 11:46:50;;;;;;;6.03;2.47;;;24.00;56.20;;;;;;4997512;28;20521;-72
2022/06/22 11:49:57;;;;;;;4.55;2.20;;;24.10;54.80;;;;;;4980733;28;20061;-72
2022/06/22 11:52:42;;;;;;;4.22;2.10;;;24.00;55.60;;;;;;4971226;28;20054;-73
2022/06/22 11:55:23;;;;;;;4.18;2.42;;;24.00;55.10;;;;;;4978890;28;20553;-72
2022/06/22 11:58:20;;;;;;;5.63;2.60;;;24.20;53.20;;;;;;4988693;28;20508;-71
2022/06/22 12:00:52;;;;;;;4.90;2.35;;;24.20;55.00;;;;;;4988048;28;20045;-72
2022/06/22 12:04:03;;;;;;;5.90;3.00;;;24.20;57.90;;;;;;4973160;28;20092;-71
2022/06/22 12:06:53;;;;;;;3.58;2.15;;;24.20;54.50;;;;;;4987007;28;20046;-72
2022/06/22 12:09:31;;;;;;;;;;;24.20;56.80;;;;;;4982168;28;20080;-72
2022/06/22 12:12:18;;;;;;;5.25;2.40;;;24.30;55.20;;;;;;4988988;28;19925;-72
2022/06/22 12:15:09;;;;;;;6.75;2.30;;;24.20;55.80;;;;;;4976629;28;20046;-72
2022/06/22 12:18:02;;;;;;;5.47;2.45;;;24.20;53.60;;;;;;4979956;28;20042;-72
2022/06/22 12:20:53;;;;;;;4.25;1.75;;;24.30;51.00;;;;;;4987750;28;20042;-72
2022/06/22 12:23:55;;;;;;;4.82;2.75;;;24.30;54.20;;;;;;4970305;28;20046;-71
2022/06/22 12:26:39;;;;;;;7.28;2.13;;;24.40;54.90;;;;;;4985334;28;20040;-72
2022/06/22 12:29:43;;;;;;;7.45;2.10;;;24.40;55.70;;;;;;4988133;28;20509;-73
2022/06/22 12:32:23;;;;;;;6.43;2.53;;;24.50;56.30;;;;;;4972634;28;21110;-72
2022/06/22 12:35:03;;;;;;;;;;;24.70;55.30;;;;;;4989478;28;20042;-72
2022/06/22 12:37:57;;;;;;;5.85;2.50;;;24.70;54.70;;;;;;4984815;28;20041;-72
2022/06/22 12:40:27;;;;;;;3.67;2.70;;;24.70;54.70;;;;;;4984851;28;20042;-73
2022/06/22 12:42:59;;;;;;;;;;;24.80;54.70;;;;;;4981585;28;20058;-72
2022/06/22 12:45:49;;;;;;;7.30;2.47;;;24.90;55.00;;;;;;4984713;28;19956;-72
2022/06/22 12:48:33;;;;;;;5.50;2.63;;;24.80;56.20;;;;;;4985667;28;20045;-72
2022/06/22 12:51:30;;;;;;;6.60;2.90;;;24.80;53.40;;;;;;4971238;28;20045;-71
2022/06/22 12:53:59;;;;;;;4.65;2.33;;;24.70;53.00;;;;;;4978297;28;20058;-72
2022/06/22 12:56:38;;;;;;;5.53;3.25;;;24.90;57.60;;;;;;4985870;28;20485;-72
2022/06/22 12:59:31;;;;;;;5.40;2.88;;;25.00;57.20;;;;;;4987757;28;20046;-72
2022/06/22 13:01:57;;;;;;;5.90;2.72;;;25.00;55.70;;;;;;4979523;28;20552;-72
2022/06/22 13:04:30;;;;;;;6.38;2.63;;;24.90;55.40;;;;;;4995779;28;20089;-72
2022/06/22 13:07:01;;;;;;;6.75;2.90;;;25.00;55.90;;;;;;4988510;28;20042;-72
2022/06/22 13:09:28;;;;;;;5.18;2.30;;;25.10;55.40;;;;;;4986078;28;20126;-73
2022/06/22 13:11:56;;;;;;;6.05;3.20;;;25.20;54.90;;;;;;4987701;28;20046;-72
2022/06/22 13:14:46;;;;;;;5.90;2.75;;;25.30;54.90;;;;;;4987491;28;20405;-72
2022/06/22 13:17:27;;;;;;;8.63;3.60;;;25.40;55.30;;;;;;4986934;28;20050;-72
2022/06/22 13:20:03;;;;;;;6.40;3.30;;;25.50;55.90;;;;;;4969637;28;20088;-72
2022/06/22 13:22:41;;;;;;;5.22;2.85;;;25.40;56.00;;;;;;4978898;28;20225;-71
2022/06/22 13:25:36;;;;;;;6.75;3.47;;;25.30;57.00;;;;;;4978132;28;20528;-71
2022/06/22 13:28:07;;;;;;;6.70;3.30;;;25.50;56.50;;;;;;4978532;28;20502;-72
2022/06/22 13:30:56;;;;;;;6.18;3.13;;;25.60;56.30;;;;;;4983271;28;20058;-72
2022/06/22 13:33:55;;;;;;;8.98;5.25;;;25.80;57.10;;;;;;4988564;28;20105;-73
2022/06/22 13:36:39;;;;;;;8.95;4.45;;;25.70;54.10;;;;;;4986528;28;20296;-72
2022/06/22 13:39:16;;;;;;;8.68;4.18;;;25.60;57.00;;;;;;4970772;28;20042;-73
2022/06/22 13:42:00;;;;;;;6.82;3.95;;;25.60;54.90;;;;;;4969457;28;20046;-72
2022/06/22 13:44:26;;;;;;;7.03;3.05;;;25.80;55.70;;;;;;4979303;28;20053;-76
2022/06/22 13:47:20;;;;;;;6.57;2.70;;;25.90;54.20;;;;;;4991333;28;20679;-75
2022/06/22 13:50:19;;;;;;;4.70;2.60;;;26.10;52.70;;;;;;4987604;28;20044;-73
2022/06/22 13:52:54;;;;;;;6.68;2.72;;;26.20;54.70;;;;;;4989173;28;20046;-73
2022/06/22 13:55:35;;;;;;;6.60;3.35;;;26.40;52.70;;;;;;4973199;28;20096;-74
2022/06/22 13:58:36;;;;;;;5.22;2.45;;;26.50;53.70;;;;;;4987284;28;20584;-73
2022/06/22 14:01:19;;;;;;;7.88;3.22;;;26.70;53.30;;;;;;4972932;28;20108;-75
2022/06/22 14:04:00;;;;;;;5.53;3.22;;;26.80;52.90;;;;;;4987196;28;20115;-72